createdAt,value
2024-04-13T00:00:05.747Z,5.900
2024-04-13T00:01:04.212Z,5.5
2024-04-13T00:02:04.641Z,5.599
2024-04-13T00:03:04.175Z,6.599
2024-04-13T00:04:05.025Z,5.5
2024-04-13T00:05:05.043Z,4.400
2024-04-13T00:06:04.374Z,4.300
2024-04-13T00:07:03.918Z,5.099
2024-04-13T00:08:04.308Z,5.5
2024-04-13T00:09:04.824Z,5.199
2024-04-13T00:10:04.458Z,4.300
2024-04-13T00:11:04.090Z,5.900
2024-04-13T00:12:04.786Z,6.300
2024-04-13T00:13:04.111Z,5.400
2024-04-13T00:15:05.011Z,4.900
2024-04-13T00:17:04.808Z,5.599
2024-04-13T00:18:04.358Z,5.199
2024-04-13T00:19:04.742Z,4.599
2024-04-13T00:20:04.127Z,5.699
2024-04-13T00:21:04.654Z,6
2024-04-13T00:22:04.172Z,5.599
2024-04-13T00:23:04.449Z,4.400
2024-04-13T00:24:04.695Z,4.300
2024-04-13T00:25:04.136Z,5.599
2024-04-13T00:26:04.523Z,5.900
2024-04-13T00:27:04.644Z,5.599
2024-04-13T00:28:03.991Z,5.699
2024-04-13T00:29:04.029Z,6.800
2024-04-13T00:30:04.840Z,5.900
2024-04-13T00:31:05.713Z,7
2024-04-13T00:32:04.231Z,6.099
2024-04-13T00:33:04.491Z,7.400
2024-04-13T00:34:03.979Z,5.699
2024-04-13T00:35:04.341Z,4.199
2024-04-13T00:36:04.653Z,5.900
2024-04-13T00:37:03.956Z,6.900
2024-04-13T00:38:04.228Z,6.300
2024-04-13T00:39:04.738Z,5.300
2024-04-13T00:40:04.496Z,4.800
2024-04-13T00:41:04.753Z,5.900
2024-04-13T00:42:04.097Z,6.800
2024-04-13T00:43:04.600Z,4.800
2024-04-13T00:44:03.911Z,6
2024-04-13T00:45:04.648Z,4.099
2024-04-13T00:46:04.336Z,4.599
2024-04-13T00:47:04.706Z,5.5
2024-04-13T00:48:04.427Z,4.5
2024-04-13T00:49:03.996Z,5.599
2024-04-13T00:50:04.841Z,4.800
2024-04-13T00:51:04.209Z,7
2024-04-13T00:52:04.690Z,5.800
2024-04-13T00:53:04.004Z,6.300
2024-04-13T00:54:04.361Z,5.099
2024-04-13T00:55:04.763Z,5.800
2024-04-13T00:56:04.028Z,5.900
2024-04-13T00:57:04.359Z,5.099
2024-04-13T00:58:04.681Z,5.800
2024-04-13T00:59:04.083Z,6.300
2024-04-13T01:00:05.456Z,6.599
2024-04-13T01:01:04.522Z,6.199
2024-04-13T01:02:04.265Z,6.099
2024-04-13T01:03:04.683Z,5.300
2024-04-13T01:04:04.330Z,6.300
2024-04-13T01:05:04.085Z,4.300
2024-04-13T01:06:04.610Z,5.300
2024-04-13T01:07:03.958Z,6.900
2024-04-13T01:08:04.335Z,5
2024-04-13T01:09:04.726Z,4
2024-04-13T01:10:04.331Z,5.300
2024-04-13T01:11:04.611Z,5.599
2024-04-13T01:12:04.111Z,5.900
2024-04-13T01:13:04.692Z,6.900
2024-04-13T01:14:04.015Z,5.300
2024-04-13T01:15:04.546Z,5.400
2024-04-13T01:16:03.941Z,7.199
2024-04-13T01:17:04.352Z,5.300
2024-04-13T01:18:04.756Z,5.099
2024-04-13T01:19:04.392Z,4.900
2024-04-13T01:20:04.286Z,5.300
2024-04-13T01:21:04.673Z,6.199
2024-04-13T01:22:04.206Z,6
2024-04-13T01:24:04.080Z,4.900
2024-04-13T01:25:04.939Z,6.300
2024-04-13T01:26:04.325Z,5.699
2024-04-13T01:27:04.640Z,6.300
2024-04-13T01:28:04.010Z,4.900
2024-04-13T01:29:04.363Z,6.300
2024-04-13T01:30:05.200Z,4.699
2024-04-13T01:31:04.713Z,4.300
2024-04-13T01:32:04.213Z,6.5
2024-04-13T01:33:04.909Z,4.800
2024-04-13T01:34:04.570Z,5.800
2024-04-13T01:35:04.071Z,6.900
2024-04-13T01:36:04.419Z,5.599
2024-04-13T01:37:04.761Z,5.800
2024-04-13T01:38:04.145Z,5.400
2024-04-13T01:39:04.779Z,6.400
2024-04-13T01:40:04.289Z,6.099
2024-04-13T01:41:04.601Z,5.800
2024-04-13T01:42:03.962Z,4.900
2024-04-13T01:43:04.272Z,6.199
2024-04-13T01:44:04.466Z,4.900
2024-04-13T01:45:04.922Z,5.900
2024-04-13T01:46:04.274Z,5.800
2024-04-13T01:47:04.796Z,4.599
2024-04-13T01:48:04.322Z,5.699
2024-04-13T01:49:04.074Z,6.400
2024-04-13T01:50:04.437Z,7.300
2024-04-13T01:51:04.848Z,5.300
2024-04-13T01:52:04.176Z,5.599
2024-04-13T01:53:04.485Z,6.099
2024-04-13T01:54:04.865Z,5.199
2024-04-13T01:55:04.520Z,6.699
2024-04-13T01:56:04.916Z,6.300
2024-04-13T01:57:04.336Z,6.199
2024-04-13T01:58:04.686Z,5
2024-04-13T01:59:04.173Z,4.699
2024-04-13T02:00:05.477Z,4.800
2024-04-13T02:01:04.206Z,6.5
2024-04-13T02:02:04.709Z,5.400
2024-04-13T02:04:04.830Z,5.800
2024-04-13T02:05:04.659Z,8.199
2024-04-13T02:06:03.989Z,6.699
2024-04-13T02:07:04.360Z,5.099
2024-04-13T02:08:04.647Z,4.699
2024-04-13T02:09:04.199Z,6.300
2024-04-13T02:10:04.637Z,5.5
2024-04-13T02:11:04.153Z,5.900
2024-04-13T02:12:04.550Z,5.5
2024-04-13T02:13:03.902Z,7
2024-04-13T02:14:04.289Z,4.800
2024-04-13T02:15:05.011Z,5.599
2024-04-13T02:17:04.639Z,4.900
2024-04-13T02:18:04.167Z,4.300
2024-04-13T02:19:04.864Z,5.300
2024-04-13T02:21:04.013Z,4.699
2024-04-13T02:22:04.350Z,6
2024-04-13T02:23:04.748Z,4.599
2024-04-13T02:24:04.108Z,5.5
2024-04-13T02:25:04.433Z,6
2024-04-13T02:26:03.866Z,5.300
2024-04-13T02:27:04.380Z,6
2024-04-13T02:28:03.959Z,5.5
2024-04-13T02:29:04.363Z,4.599
2024-04-13T02:30:05.034Z,5.099
2024-04-13T02:31:04.539Z,4.099
2024-04-13T02:32:04.112Z,4.699
2024-04-13T02:33:04.797Z,6.099
2024-04-13T02:34:04.496Z,5.300
2024-04-13T02:35:04.314Z,4.699
2024-04-13T02:36:04.575Z,5
2024-04-13T02:38:04.479Z,3.900
2024-04-13T02:39:04.137Z,5.300
2024-04-13T02:40:04.431Z,5.599
2024-04-13T02:41:03.861Z,4.800
2024-04-13T02:42:04.434Z,3.5
2024-04-13T02:43:03.967Z,5.599
2024-04-13T02:44:04.343Z,5.199
2024-04-13T02:45:04.925Z,6
2024-04-13T02:46:04.562Z,5.199
2024-04-13T02:47:04.205Z,4.800
2024-04-13T02:48:04.571Z,5.900
2024-04-13T02:49:04.525Z,5.400
2024-04-13T02:50:04.585Z,5.300
2024-04-13T02:51:04.029Z,6
2024-04-13T02:52:04.444Z,4.099
2024-04-13T02:53:04.834Z,6.599
2024-04-13T02:54:04.239Z,4.599
2024-04-13T02:55:04.226Z,4.699
2024-04-13T02:56:04.741Z,5.300
2024-04-13T02:57:04.033Z,4.699
2024-04-13T02:58:04.423Z,4.300
2024-04-13T02:59:04.773Z,5.199
2024-04-13T03:00:05.007Z,4
2024-04-13T03:01:04.715Z,5.099
2024-04-13T03:02:04.459Z,5.5
2024-04-13T03:03:04.134Z,5.099
2024-04-13T03:04:04.735Z,4.900
2024-04-13T03:05:04.501Z,4.699
2024-04-13T03:06:04.027Z,5.400
2024-04-13T03:07:04.566Z,5.5
2024-04-13T03:08:03.977Z,6.5
2024-04-13T03:09:04.338Z,4.800
2024-04-13T03:10:04.740Z,5.099
2024-04-13T03:11:04.092Z,5.300
2024-04-13T03:12:04.558Z,5.099
2024-04-13T03:13:03.974Z,4.199
2024-04-13T03:14:04.324Z,4
2024-04-13T03:15:04.877Z,5.699
2024-04-13T03:16:04.421Z,5.199
2024-04-13T03:18:04.279Z,4.900
2024-04-13T03:19:04.699Z,5.5
2024-04-13T03:20:04.061Z,6
2024-04-13T03:21:04.484Z,4.599
2024-04-13T03:22:04.058Z,5.5
2024-04-13T03:23:04.465Z,5.300
2024-04-13T03:24:03.963Z,5.099
2024-04-13T03:25:04.642Z,5.300
2024-04-13T03:26:04.410Z,6.099
2024-04-13T03:27:04.684Z,5.900
2024-04-13T03:28:04.109Z,6.5
2024-04-13T03:29:04.372Z,4.599
2024-04-13T03:30:05.029Z,5.5
2024-04-13T03:31:04.501Z,4.599
2024-04-13T03:32:03.967Z,5.400
2024-04-13T03:33:04.604Z,5.800
2024-04-13T03:34:04.346Z,5.300
2024-04-13T03:35:04.766Z,4.5
2024-04-13T03:36:04.281Z,5.5
2024-04-13T03:37:04.689Z,4.599
2024-04-13T03:38:03.942Z,4.699
2024-04-13T03:39:04.395Z,4.400
2024-04-13T03:40:04.927Z,4.800
2024-04-13T03:41:04.423Z,5.199
2024-04-13T03:42:04.755Z,4.300
2024-04-13T03:43:04.215Z,4.800
2024-04-13T03:44:04.743Z,4.099
2024-04-13T03:45:04.271Z,5.300
2024-04-13T03:46:04.675Z,4.5
2024-04-13T03:47:04.174Z,6
2024-04-13T03:48:04.704Z,4.699
2024-04-13T03:50:04.482Z,4.300
2024-04-13T03:51:04.864Z,5.699
2024-04-13T03:52:04.255Z,5.300
2024-04-13T03:53:04.588Z,5
2024-04-13T03:54:04.158Z,5.099
2024-04-13T03:55:04.535Z,5.400
2024-04-13T03:56:04.731Z,6.300
2024-04-13T03:57:04.289Z,5.300
2024-04-13T03:58:04.824Z,4.400
2024-04-13T03:59:04.190Z,4.699
2024-04-13T04:01:04.212Z,5
2024-04-13T04:02:04.868Z,5.099
2024-04-13T04:03:04.503Z,4.400
2024-04-13T04:04:04.145Z,4.599
2024-04-13T04:05:04.868Z,6.300
2024-04-13T04:06:04.228Z,4.800
2024-04-13T04:07:04.512Z,5.099
2024-04-13T04:09:04.491Z,4.900
2024-04-13T04:10:04.041Z,5.300
2024-04-13T04:11:04.347Z,6
2024-04-13T04:12:04.671Z,5.300
2024-04-13T04:13:04.169Z,4.300
2024-04-13T04:14:04.505Z,4.099
2024-04-13T04:15:05.069Z,5.400
2024-04-13T04:16:04.521Z,4.699
2024-04-13T04:17:04.076Z,4.599
2024-04-13T04:18:04.637Z,4.5
2024-04-13T04:19:04.396Z,4.800
2024-04-13T04:20:04.959Z,4.599
2024-04-13T04:21:04.386Z,4.400
2024-04-13T04:22:03.913Z,4.599
2024-04-13T04:23:04.399Z,4
2024-04-13T04:24:04.782Z,5
2024-04-13T04:25:04.657Z,3.400
2024-04-13T04:26:04.149Z,4.400
2024-04-13T04:27:04.508Z,5
2024-04-13T04:28:04.774Z,4.599
2024-04-13T04:29:04.240Z,4.300
2024-04-13T04:30:05.173Z,3.599
2024-04-13T04:32:04.271Z,4.599
2024-04-13T04:33:04.767Z,5
2024-04-13T04:34:04.530Z,5.099
2024-04-13T04:35:04.332Z,5.300
2024-04-13T04:36:04.903Z,6
2024-04-13T04:37:04.293Z,5.699
2024-04-13T04:38:04.621Z,6.599
2024-04-13T04:39:04.191Z,5.699
2024-04-13T04:40:04.588Z,5.800
2024-04-13T04:41:03.920Z,5.5
2024-04-13T04:42:04.500Z,6.900
2024-04-13T04:43:04.042Z,5.800
2024-04-13T04:44:04.530Z,5.400
2024-04-13T04:45:05.088Z,6
2024-04-13T04:46:04.563Z,6.300
2024-04-13T04:47:03.953Z,5
2024-04-13T04:48:04.502Z,6.699
2024-04-13T04:49:04.206Z,5.400
2024-04-13T04:50:04.976Z,7
2024-04-13T04:51:04.553Z,5.400
2024-04-13T04:52:04.130Z,6.300
2024-04-13T04:53:04.429Z,5.199
2024-04-13T04:54:04.659Z,5.5
2024-04-13T04:55:04.248Z,5.199
2024-04-13T04:56:04.543Z,5.900
2024-04-13T04:57:04.763Z,5.800
2024-04-13T04:58:04.236Z,6.5
2024-04-13T04:59:04.515Z,5.800
2024-04-13T05:00:05.042Z,5.300
2024-04-13T05:01:04.556Z,5.599
2024-04-13T05:02:04.197Z,5.5
2024-04-13T05:03:04.494Z,5.199
2024-04-13T05:05:04.403Z,5.599
2024-04-13T05:07:04.490Z,5.800
2024-04-13T05:08:04.754Z,6.300
2024-04-13T05:09:04.171Z,5.199
2024-04-13T05:10:04.678Z,6.400
2024-04-13T05:11:04.162Z,5.400
2024-04-13T05:12:04.772Z,6.5
2024-04-13T05:13:04.444Z,5.699
2024-04-13T05:14:04.057Z,5.599
2024-04-13T05:15:04.584Z,5.900
2024-04-13T05:16:04.123Z,6.199
2024-04-13T05:17:04.599Z,5.099
2024-04-13T05:19:05.000Z,5.800
2024-04-13T05:20:04.883Z,4.800
2024-04-13T05:21:04.179Z,4.699
2024-04-13T05:22:04.623Z,5.099
2024-04-13T05:24:04.388Z,5.599
2024-04-13T05:25:04.802Z,5
2024-04-13T05:26:04.196Z,4.699
2024-04-13T05:27:04.469Z,4.900
2024-04-13T05:28:04.146Z,5
2024-04-13T05:29:04.599Z,6.400
2024-04-13T05:31:04.342Z,5.300
2024-04-13T05:32:04.806Z,4.5
2024-04-13T05:33:04.269Z,4.800
2024-04-13T05:34:04.807Z,4.599
2024-04-13T05:35:04.453Z,5.599
2024-04-13T05:36:05.557Z,4.099
2024-04-13T05:37:04.229Z,7.199
2024-04-13T05:38:04.637Z,5.599
2024-04-13T05:39:04.204Z,5.800
2024-04-13T05:40:04.844Z,4.099
2024-04-13T05:41:04.338Z,4.5
2024-04-13T05:42:04.746Z,4.599
2024-04-13T05:43:04.171Z,4.199
2024-04-13T05:44:04.662Z,4.800
2024-04-13T05:45:04.204Z,4.199
2024-04-13T05:46:04.650Z,5
2024-04-13T05:47:04.120Z,6.599
2024-04-13T05:48:04.529Z,6.5
2024-04-13T05:49:03.932Z,4.900
2024-04-13T05:50:04.591Z,5.900
2024-04-13T05:51:03.903Z,5.699
2024-04-13T05:52:04.575Z,4.800
2024-04-13T05:53:04.890Z,5.800
2024-04-13T05:54:04.327Z,5.199
2024-04-13T05:55:04.642Z,5.5
2024-04-13T05:56:04.023Z,5.099
2024-04-13T05:57:04.463Z,6
2024-04-13T05:58:04.740Z,7.199
2024-04-13T05:59:04.315Z,6.5
2024-04-13T06:00:05.524Z,5.599
2024-04-13T06:01:04.376Z,6.5
2024-04-13T06:02:04.111Z,6.300
2024-04-13T06:03:04.821Z,5.900
2024-04-13T06:04:04.314Z,6
2024-04-13T06:05:04.815Z,5.099
2024-04-13T06:06:04.333Z,4.699
2024-04-13T06:07:04.732Z,5
2024-04-13T06:08:04.242Z,5.599
2024-04-13T06:09:04.575Z,7.800
2024-04-13T06:10:04.060Z,7.199
2024-04-13T06:11:04.421Z,6.900
2024-04-13T06:12:03.911Z,7
2024-04-13T06:13:04.273Z,5.800
2024-04-13T06:14:04.689Z,6.400
2024-04-13T06:15:04.424Z,6.599
2024-04-13T06:16:04.044Z,6.400
2024-04-13T06:17:04.581Z,7.099
2024-04-13T06:18:04.325Z,6.099
2024-04-13T06:19:04.939Z,6.5
2024-04-13T06:20:04.425Z,6
2024-04-13T06:21:04.680Z,5.5
2024-04-13T06:22:03.998Z,4.900
2024-04-13T06:23:04.298Z,5.199
2024-04-13T06:24:04.791Z,4.400
2024-04-13T06:25:04.397Z,6.800
2024-04-13T06:26:04.958Z,6.400
2024-04-13T06:27:04.366Z,5.300
2024-04-13T06:28:04.752Z,5.599
2024-04-13T06:29:04.268Z,6
2024-04-13T06:30:04.957Z,4.300
2024-04-13T06:31:04.367Z,5.699
2024-04-13T06:32:05.228Z,6.599
2024-04-13T06:33:04.754Z,5.099
2024-04-13T06:34:04.824Z,4.699
2024-04-13T06:35:04.524Z,5.199
2024-04-13T06:36:04.702Z,5.300
2024-04-13T06:37:04.151Z,5.400
2024-04-13T06:38:04.483Z,6.400
2024-04-13T06:39:05.033Z,5.5
2024-04-13T06:40:04.692Z,5.800
2024-04-13T06:41:04.179Z,6.599
2024-04-13T06:42:04.465Z,6.300
2024-04-13T06:43:03.834Z,5.199
2024-04-13T06:44:04.368Z,7.300
2024-04-13T06:45:04.976Z,5.699
2024-04-13T06:46:04.378Z,5.5
2024-04-13T06:47:04.779Z,5.800
2024-04-13T06:48:04.025Z,6.199
2024-04-13T06:49:04.510Z,5.5
2024-04-13T06:50:04.874Z,6.599
2024-04-13T06:51:04.533Z,6.699
2024-04-13T06:52:04.106Z,5.699
2024-04-13T06:53:04.499Z,6.699
2024-04-13T06:54:04.879Z,5.400
2024-04-13T06:55:04.360Z,7
2024-04-13T06:56:04.613Z,5
2024-04-13T06:57:04.039Z,5.599
2024-04-13T06:58:04.473Z,7.5
2024-04-13T06:59:04.841Z,5.300
2024-04-13T07:00:05.109Z,6.400
2024-04-13T07:01:03.995Z,7.599
2024-04-13T07:02:04.639Z,5
2024-04-13T07:03:04.199Z,8.300
2024-04-13T07:04:03.956Z,5.099
2024-04-13T07:05:04.581Z,8.100
2024-04-13T07:06:04.018Z,5.699
2024-04-13T07:07:04.290Z,5.300
2024-04-13T07:08:04.650Z,5.800
2024-04-13T07:09:04.090Z,7
2024-04-13T07:10:04.738Z,5.599
2024-04-13T07:11:04.326Z,4.599
2024-04-13T07:12:07.080Z,5.599
2024-04-13T07:13:04.336Z,6.5
2024-04-13T07:14:04.568Z,5.699
2024-04-13T07:15:04.331Z,5.800
2024-04-13T07:16:04.714Z,6.5
2024-04-13T07:17:04.304Z,7.599
2024-04-13T07:18:04.739Z,8.300
2024-04-13T07:19:04.355Z,6.199
2024-04-13T07:20:04.797Z,6.099
2024-04-13T07:21:04.317Z,7.599
2024-04-13T07:22:04.642Z,5.300
2024-04-13T07:23:04.088Z,7
2024-04-13T07:24:04.564Z,5.900
2024-04-13T07:25:04.064Z,7.699
2024-04-13T07:26:04.410Z,7
2024-04-13T07:27:04.804Z,5.599
2024-04-13T07:28:04.127Z,5.400
2024-04-13T07:29:04.517Z,5.199
2024-04-13T07:30:05.036Z,6.400
2024-04-13T07:31:04.362Z,6.5
2024-04-13T07:32:04.796Z,5
2024-04-13T07:33:04.280Z,6.199
2024-04-13T07:34:04.870Z,5.199
2024-04-13T07:35:04.411Z,6.400
2024-04-13T07:36:04.605Z,5.699
2024-04-13T07:37:03.911Z,6.199
2024-04-13T07:38:04.286Z,5.099
2024-04-13T07:39:04.727Z,6.800
2024-04-13T07:40:04.043Z,4.900
2024-04-13T07:41:04.530Z,4.099
2024-04-13T07:42:03.784Z,4.800
2024-04-13T07:43:04.156Z,5.400
2024-04-13T07:44:04.560Z,5.699
2024-04-13T07:45:04.267Z,5.099
2024-04-13T07:46:05.078Z,4.900
2024-04-13T07:47:04.646Z,5.400
2024-04-13T07:48:04.138Z,4.800
2024-04-13T07:49:04.791Z,5
2024-04-13T07:50:04.407Z,4.099
2024-04-13T07:51:04.804Z,6.099
2024-04-13T07:52:04.433Z,4.400
2024-04-13T07:53:04.781Z,5
2024-04-13T07:54:04.148Z,4.300
2024-04-13T07:55:04.679Z,4.599
2024-04-13T07:56:04.027Z,4.300
2024-04-13T07:57:04.352Z,4.800
2024-04-13T07:58:04.758Z,4.400
2024-04-13T07:59:04.187Z,5.300
2024-04-13T08:00:05.634Z,5.199
2024-04-13T08:01:04.693Z,4.300
2024-04-13T08:02:04.389Z,5
2024-04-13T08:03:04.932Z,6.599
2024-04-13T08:04:04.509Z,4.699
2024-04-13T08:06:04.688Z,5.199
2024-04-13T08:07:04.050Z,5.800
2024-04-13T08:08:04.373Z,6
2024-04-13T08:09:04.932Z,5
2024-04-13T08:10:04.438Z,5.900
2024-04-13T08:11:04.890Z,4.699
2024-04-13T08:12:04.458Z,5.800
2024-04-13T08:13:04.995Z,5.099
2024-04-13T08:14:04.404Z,4.900
2024-04-13T08:15:04.805Z,5
2024-04-13T08:16:04.158Z,4.300
2024-04-13T08:17:04.742Z,5.599
2024-04-13T08:18:04.203Z,6.300
2024-04-13T08:19:04.763Z,5.300
2024-04-13T08:20:04.126Z,5.699
2024-04-13T08:21:04.425Z,5.300
2024-04-13T08:22:04.696Z,6.099
2024-04-13T08:23:04.199Z,4.599
2024-04-13T08:24:04.556Z,4.900
2024-04-13T08:25:03.979Z,6.300
2024-04-13T08:26:04.435Z,6.699
2024-04-13T08:27:04.064Z,4.300
2024-04-13T08:28:04.420Z,6.900
2024-04-13T08:29:04.745Z,4.900
2024-04-13T08:30:04.319Z,5.300
2024-04-13T08:31:04.874Z,5.800
2024-04-13T08:32:04.904Z,4.5
2024-04-13T08:33:04.396Z,6.300
2024-04-13T08:34:03.900Z,6
2024-04-13T08:35:04.391Z,5.300
2024-04-13T08:36:04.793Z,5.099
2024-04-13T08:37:04.202Z,7
2024-04-13T08:38:04.502Z,6.300
2024-04-13T08:39:04.031Z,6.699
2024-04-13T08:40:04.494Z,4.300
2024-04-13T08:41:04.859Z,5
2024-04-13T08:42:04.208Z,6.099
2024-04-13T08:43:04.440Z,5.300
2024-04-13T08:44:05.512Z,5.099
2024-04-13T08:45:04.693Z,4.5
2024-04-13T08:46:04.192Z,4
2024-04-13T08:47:04.867Z,5.800
2024-04-13T08:48:04.355Z,5.300
2024-04-13T08:49:04.117Z,6.199
2024-04-13T08:50:04.797Z,5.699
2024-04-13T08:51:04.289Z,4.599
2024-04-13T08:52:04.579Z,6.900
2024-04-13T08:53:03.931Z,4.900
2024-04-13T08:54:04.247Z,4.300
2024-04-13T08:55:04.591Z,6.099
2024-04-13T08:56:04.143Z,5.199
2024-04-13T08:57:04.818Z,5.599
2024-04-13T08:58:04.507Z,6.800
2024-04-13T08:59:03.960Z,4.099
2024-04-13T09:00:05.297Z,6.300
2024-04-13T09:01:04.853Z,7.300
2024-04-13T09:02:04.777Z,4
2024-04-13T09:03:04.142Z,4.300
2024-04-13T09:04:04.683Z,3.5
2024-04-13T09:05:04.614Z,5.199
2024-04-13T09:06:03.871Z,6.199
2024-04-13T09:07:04.463Z,6
2024-04-13T09:08:04.857Z,5
2024-04-13T09:09:04.416Z,4.599
2024-04-13T09:11:04.122Z,4.699
2024-04-13T09:12:04.575Z,5.699
2024-04-13T09:13:04.075Z,7.099
2024-04-13T09:14:04.459Z,6
2024-04-13T09:15:04.915Z,5.800
2024-04-13T09:16:04.304Z,4.900
2024-04-13T09:17:04.805Z,4.5
2024-04-13T09:18:04.288Z,6.5
2024-04-13T09:19:06.916Z,6.400
2024-04-13T09:20:04.119Z,5.599
2024-04-13T09:21:04.381Z,5.900
2024-04-13T09:22:04.952Z,5.599
2024-04-13T09:23:04.302Z,12.19
2024-04-13T09:24:04.770Z,6.800
2024-04-13T09:25:04.170Z,5.199
2024-04-13T09:26:04.453Z,6
2024-04-13T09:27:04.878Z,4.900
2024-04-13T09:28:04.205Z,5.300
2024-04-13T09:29:05.009Z,5.199
2024-04-13T09:30:04.736Z,5.5
2024-04-13T09:31:04.187Z,5.599
2024-04-13T09:32:04.672Z,5.5
2024-04-13T09:33:04.080Z,5.699
2024-04-13T09:34:04.459Z,5.800
2024-04-13T09:36:04.469Z,5.599
2024-04-13T09:37:04.908Z,7.599
2024-04-13T09:38:04.496Z,7.699
2024-04-13T09:39:04.076Z,6.199
2024-04-13T09:40:04.659Z,6
2024-04-13T09:41:04.244Z,9.300
2024-04-13T09:42:04.594Z,6.5
2024-04-13T09:43:04.033Z,5.800
2024-04-13T09:44:04.397Z,5.300
2024-04-13T09:45:05.165Z,4.5
2024-04-13T09:46:04.601Z,6.099
2024-04-13T09:47:03.984Z,6.400
2024-04-13T09:48:04.348Z,5.900
2024-04-13T09:49:04.095Z,5.800
2024-04-13T09:50:04.874Z,6
2024-04-13T09:51:04.223Z,5.699
2024-04-13T09:52:04.598Z,4.599
2024-04-13T09:53:04.149Z,5.400
2024-04-13T09:54:04.347Z,6.5
2024-04-13T09:55:04.817Z,6.599
2024-04-13T09:56:04.334Z,4.900
2024-04-13T09:57:04.684Z,4.800
2024-04-13T09:58:04.086Z,6
2024-04-13T09:59:04.531Z,5.099
2024-04-13T10:00:07.401Z,5.5
2024-04-13T10:01:04.318Z,5.199
2024-04-13T10:02:04.358Z,5.400
2024-04-13T10:03:04.407Z,5.900
2024-04-13T10:04:04.856Z,6.400
2024-04-13T10:05:04.749Z,5.900
2024-04-13T10:06:04.064Z,7.400
2024-04-13T10:07:04.411Z,4.800
2024-04-13T10:08:04.765Z,6.199
2024-04-13T10:09:04.292Z,6.400
2024-04-13T10:10:04.736Z,6.099
2024-04-13T10:11:04.214Z,4.199
2024-04-13T10:12:04.758Z,5.400
2024-04-13T10:13:04.207Z,5.199
2024-04-13T10:14:04.711Z,5.400
2024-04-13T10:15:04.352Z,7
2024-04-13T10:16:04.800Z,4.800
2024-04-13T10:17:04.505Z,4.5
2024-04-13T10:18:04.056Z,4.699
2024-04-13T10:19:04.434Z,5.199
2024-04-13T10:20:04.041Z,4.5
2024-04-13T10:21:04.341Z,4.099
2024-04-13T10:22:07.870Z,4.199
2024-04-13T10:23:04.439Z,6.5
2024-04-13T10:24:04.867Z,4.699
2024-04-13T10:25:04.292Z,5.199
2024-04-13T10:26:04.821Z,4.699
2024-04-13T10:28:04.631Z,4.099
2024-04-13T10:29:04.253Z,5.5
2024-04-13T10:30:05.076Z,3.200
2024-04-13T10:31:04.627Z,4.099
2024-04-13T10:32:04.307Z,4.699
2024-04-13T10:33:04.845Z,4.300
2024-04-13T10:34:04.238Z,4.099
2024-04-13T10:35:04.842Z,4.199
2024-04-13T10:36:04.140Z,4.5
2024-04-13T10:37:04.510Z,3.599
2024-04-13T10:38:04.936Z,4.300
2024-04-13T10:39:04.527Z,3.700
2024-04-13T10:40:04.312Z,2.5
2024-04-13T10:41:04.769Z,3.799
2024-04-13T10:42:04.411Z,5.199
2024-04-13T10:43:04.771Z,3.900
2024-04-13T10:44:04.186Z,6.099
2024-04-13T10:45:04.753Z,3.200
2024-04-13T10:46:04.235Z,5.599
2024-04-13T10:47:04.665Z,4.900
2024-04-13T10:48:04.226Z,5.099
2024-04-13T10:49:03.945Z,3.299
2024-04-13T10:50:06.556Z,4.300
2024-04-13T10:51:04.223Z,3.900
2024-04-13T10:52:04.613Z,5.300
2024-04-13T10:53:03.946Z,5
2024-04-13T10:54:04.198Z,5.199
2024-04-13T10:55:04.710Z,4.300
2024-04-13T10:57:09.969Z,4.5
2024-04-13T10:58:04.375Z,3.700
2024-04-13T10:59:04.838Z,3.799
2024-04-13T11:00:05.164Z,3.599
2024-04-13T11:01:04.950Z,3.5
2024-04-13T11:02:04.882Z,3.799
2024-04-13T11:03:04.457Z,3.5
2024-04-13T11:04:03.954Z,6
2024-04-13T11:05:04.838Z,4.400
2024-04-13T11:06:04.293Z,4.300
2024-04-13T11:07:04.728Z,3.900
2024-04-13T11:08:04.070Z,3.299
2024-04-13T11:09:04.475Z,3.200
2024-04-13T11:10:04.250Z,3.400
2024-04-13T11:11:04.652Z,4
2024-04-13T11:12:04.206Z,4.400
2024-04-13T11:13:04.485Z,4.800
2024-04-13T11:14:04.795Z,4.099
2024-04-13T11:15:04.347Z,4.400
2024-04-13T11:16:04.798Z,4.599
2024-04-13T11:17:04.423Z,3.5
2024-04-13T11:18:04.977Z,4.400
2024-04-13T11:19:04.908Z,2.400
2024-04-13T11:20:04.578Z,4.099
2024-04-13T11:21:04.110Z,4.400
2024-04-13T11:22:04.510Z,5.099
2024-04-13T11:23:03.958Z,4.5
2024-04-13T11:24:04.705Z,5.900
2024-04-13T11:25:04.397Z,7
2024-04-13T11:26:04.457Z,3.400
2024-04-13T11:27:03.919Z,3.700
2024-04-13T11:28:04.328Z,4
2024-04-13T11:29:04.740Z,4.099
2024-04-13T11:30:04.347Z,4.800
2024-04-13T11:31:04.860Z,4
2024-04-13T11:32:04.584Z,3.099
2024-04-13T11:33:04.302Z,3.799
2024-04-13T11:34:04.832Z,4.400
2024-04-13T11:35:04.359Z,4.800
2024-04-13T11:36:04.662Z,3.400
2024-04-13T11:37:04.010Z,2.200
2024-04-13T11:38:04.303Z,3.400
2024-04-13T11:39:04.782Z,4.099
2024-04-13T11:40:04.340Z,2.799
2024-04-13T11:41:04.807Z,2.700
2024-04-13T11:42:04.164Z,3.200
2024-04-13T11:43:04.571Z,3.599
2024-04-13T11:44:04.137Z,7.199
2024-04-13T11:45:04.700Z,5.800
2024-04-13T11:46:04.349Z,7.599
2024-04-13T11:47:04.078Z,8.899
2024-04-13T11:48:04.461Z,9.5
2024-04-13T11:49:04.178Z,6.300
2024-04-13T11:50:04.872Z,7.599
2024-04-13T11:51:07.208Z,4.900
2024-04-13T11:52:04.016Z,5.099
2024-04-13T11:53:04.334Z,5.599
2024-04-13T11:54:04.767Z,3.900
2024-04-13T11:55:04.394Z,4.599
2024-04-13T11:56:04.851Z,4.800
2024-04-13T11:57:04.185Z,5.599
2024-04-13T11:58:04.356Z,4.699
2024-04-13T11:59:04.707Z,4.599
2024-04-13T12:00:05.199Z,5.599
2024-04-13T12:01:04.642Z,3.599
2024-04-13T12:02:04.441Z,3.400
2024-04-13T12:03:04.776Z,2.900
2024-04-13T12:04:04.251Z,3.599
2024-04-13T12:05:04.705Z,1.899
2024-04-13T12:06:03.982Z,3
2024-04-13T12:07:04.290Z,4.300
2024-04-13T12:08:04.689Z,3.099
2024-04-13T12:09:04.094Z,2.400
2024-04-13T12:10:04.785Z,2.799
2024-04-13T12:11:04.338Z,3
2024-04-13T12:12:05.126Z,3.299
2024-04-13T12:13:03.987Z,3.599
2024-04-13T12:14:04.455Z,2.900
2024-04-13T12:15:04.949Z,2
2024-04-13T12:16:04.447Z,4.5
2024-04-13T12:17:04.938Z,3.200
2024-04-13T12:18:04.574Z,4.300
2024-04-13T12:19:04.255Z,2.599
2024-04-13T12:20:04.749Z,2.5
2024-04-13T12:21:04.070Z,2.599
2024-04-13T12:22:04.462Z,2.799
2024-04-13T12:23:04.807Z,4.300
2024-04-13T12:24:04.368Z,1.799
2024-04-13T12:25:04.753Z,3.200
2024-04-13T12:26:04.276Z,3.400
2024-04-13T12:27:04.580Z,2.900
2024-04-13T12:28:04.107Z,3.700
2024-04-13T12:29:04.510Z,2
2024-04-13T12:30:05.115Z,2.700
2024-04-13T12:31:04.559Z,2.5
2024-04-13T12:32:04.039Z,1.700
2024-04-13T12:33:04.582Z,2.200
2024-04-13T12:34:04.073Z,2.599
2024-04-13T12:35:04.629Z,5.400
2024-04-13T12:36:03.956Z,2.099
2024-04-13T12:37:04.395Z,2.700
2024-04-13T12:38:04.849Z,2.099
2024-04-13T12:39:04.175Z,3.799
2024-04-13T12:40:04.567Z,4.599
2024-04-13T12:41:03.913Z,4.199
2024-04-13T12:42:04.310Z,3.599
2024-04-13T12:43:04.666Z,3.200
2024-04-13T12:44:04.040Z,4.599
2024-04-13T12:45:04.677Z,3.700
2024-04-13T12:46:04.326Z,3
2024-04-13T12:47:05.483Z,3.299
2024-04-13T12:48:04.492Z,2.400
2024-04-13T12:49:04.209Z,3.400
2024-04-13T12:50:04.715Z,3.200
2024-04-13T12:51:04.066Z,3.799
2024-04-13T12:52:04.562Z,2.799
2024-04-13T12:53:03.814Z,3.400
2024-04-13T12:54:04.311Z,2.599
2024-04-13T12:55:04.735Z,3.099
2024-04-13T12:56:04.122Z,2.400
2024-04-13T12:57:04.551Z,3.099
2024-04-13T12:58:04.817Z,2.799
2024-04-13T12:59:04.242Z,3.099
2024-04-13T13:00:05.321Z,1.899
2024-04-13T13:01:04.521Z,1.799
2024-04-13T13:02:04.032Z,1.600
2024-04-13T13:03:04.626Z,3.5
2024-04-13T13:04:04.141Z,2.900
2024-04-13T13:05:04.898Z,1.799
2024-04-13T13:06:04.444Z,3.5
2024-04-13T13:07:04.911Z,2.099
2024-04-13T13:08:04.175Z,2
2024-04-13T13:09:04.561Z,1.700
2024-04-13T13:10:04.062Z,2
2024-04-13T13:11:04.588Z,1.399
2024-04-13T13:12:04.239Z,2.099
2024-04-13T13:13:04.717Z,3
2024-04-13T13:14:04.206Z,2.200
2024-04-13T13:15:04.964Z,2.700
2024-04-13T13:16:04.454Z,2.200
2024-04-13T13:17:04.244Z,3.099
2024-04-13T13:18:04.914Z,3.200
2024-04-13T13:19:04.381Z,4.099
2024-04-13T13:20:04.953Z,2.299
2024-04-13T13:21:04.379Z,3.200
2024-04-13T13:22:04.840Z,2.400
2024-04-13T13:23:04.151Z,1.5
2024-04-13T13:24:04.675Z,2.5
2024-04-13T13:25:04.022Z,1.299
2024-04-13T13:26:04.461Z,2.400
2024-04-13T13:27:04.771Z,2.099
2024-04-13T13:28:04.147Z,2.299
2024-04-13T13:29:04.428Z,2.799